Time;durP1;ratioP1;P1;durP2;ratioP2;P2;SDS_P1;SDS_P2;PMS_P1;PMS_P2;Temp;Humidity;BMP_temperature;BMP_pressure;BME280_temperature;BME280_humidity;BME280_pressure;Samples;Min_cycle;Max_cycle;Signal;HPM_P1;HPM_P2
2022/08/12 04:00:25;;;;;;;6.87;3.00;;;18.80;93.50;;;;;;6062365;23;20379;-75
2022/08/12 04:02:59;;;;;;;5.27;3.23;;;18.80;93.30;;;;;;4988629;28;20747;-75
2022/08/12 04:05:26;;;;;;;5.63;3.07;;;18.80;93.50;;;;;;4988777;28;20522;-75
2022/08/12 04:07:53;;;;;;;7.17;3.40;;;18.80;93.40;;;;;;4988851;28;20464;-75
2022/08/12 04:10:20;;;;;;;12.70;4.13;;;18.70;93.40;;;;;;4988604;28;20970;-75
2022/08/12 04:15:44;;;;;;;4.43;3.20;;;18.70;93.40;;;;;;4988517;28;20544;-75
2022/08/12 04:18:12;;;;;;;5.07;3.73;;;18.60;93.40;;;;;;4988919;28;20551;-75
2022/08/12 04:20:41;;;;;;;5.80;3.57;;;18.60;93.70;;;;;;4987889;28;20475;-75
2022/08/12 04:23:09;;;;;;;4.97;3.60;;;18.60;93.70;;;;;;4988955;28;20471;-74
2022/08/12 04:25:39;;;;;;;3.40;3.10;;;18.50;93.70;;;;;;4988351;28;20502;-75
2022/08/12 04:28:06;;;;;;;3.83;3.53;;;18.40;93.50;;;;;;4988883;28;20455;-75
2022/08/12 04:30:33;;;;;;;4.87;3.20;;;18.40;93.80;;;;;;4987760;28;21019;-75
2022/08/12 04:33:02;;;;;;;6.13;3.70;;;18.40;93.80;;;;;;4988672;28;20460;-75
2022/08/12 04:35:29;;;;;;;5.93;3.70;;;18.30;94.00;;;;;;4988476;28;20539;-74
2022/08/12 04:37:57;;;;;;;4.90;3.93;;;18.30;94.30;;;;;;4989104;28;20526;-75
2022/08/12 04:40:25;;;;;;;6.80;3.70;;;18.30;94.50;;;;;;4988869;28;20459;-75
2022/08/12 04:42:52;;;;;;;6.20;3.90;;;18.30;94.60;;;;;;4989049;28;20468;-75
2022/08/12 04:45:20;;;;;;;5.37;3.63;;;18.30;94.40;;;;;;4988480;28;20506;-75
2022/08/12 04:47:47;;;;;;;5.27;3.57;;;18.30;94.70;;;;;;4988588;28;20949;-75
2022/08/12 04:50:18;;;;;;;3.90;3.50;;;18.30;94.70;;;;;;4988491;28;20459;-75
2022/08/12 04:52:45;;;;;;;3.97;3.33;;;18.30;95.10;;;;;;4988430;28;20451;-75
2022/08/12 04:55:12;;;;;;;5.90;3.63;;;18.30;95.50;;;;;;4987901;28;20451;-74
2022/08/12 04:57:39;;;;;;;7.93;4.00;;;18.20;95.00;;;;;;4987967;28;20456;-75
2022/08/12 05:00:11;;;;;;;6.57;3.40;;;18.20;95.20;;;;;;4987390;28;20486;-78
2022/08/12 05:02:39;;;;;;;4.27;3.50;;;18.30;95.40;;;;;;4989893;28;20476;-77
2022/08/12 05:05:08;;;;;;;5.17;3.90;;;18.30;95.20;;;;;;4991504;28;20506;-77
2022/08/12 05:07:36;;;;;;;4.20;3.50;;;18.30;95.80;;;;;;4990191;28;20460;-77
2022/08/12 05:10:04;;;;;;;6.40;4.10;;;18.30;96.20;;;;;;4991656;28;20448;-76
2022/08/12 05:12:36;;;;;;;6.00;3.70;;;18.30;95.90;;;;;;4991743;28;20483;-77
2022/08/12 05:15:04;;;;;;;4.33;3.93;;;18.30;96.30;;;;;;4991285;28;20817;-77
2022/08/12 05:17:30;;;;;;;4.83;3.50;;;18.30;96.40;;;;;;4992060;28;20467;-76
2022/08/12 05:19:57;;;;;;;5.63;3.67;;;18.30;96.60;;;;;;4991777;28;20466;-77
2022/08/12 05:22:25;;;;;;;4.70;3.33;;;18.30;96.90;;;;;;4991844;28;20703;-78
2022/08/12 05:24:54;;;;;;;4.60;3.90;;;18.30;97.10;;;;;;4990778;28;20590;-77
2022/08/12 05:27:21;;;;;;;4.50;3.60;;;18.40;97.30;;;;;;4991714;28;20974;-77
2022/08/12 05:29:48;;;;;;;4.50;3.20;;;18.40;97.70;;;;;;4991648;28;20550;-77
2022/08/12 05:32:19;;;;;;;4.60;3.40;;;18.40;97.30;;;;;;4991771;28;20522;-77
2022/08/12 05:34:46;;;;;;;4.83;4.07;;;18.40;97.40;;;;;;4991146;28;20452;-77
2022/08/12 05:37:13;;;;;;;3.60;3.30;;;18.50;97.50;;;;;;4991437;28;20959;-77
2022/08/12 05:39:40;;;;;;;4.70;3.73;;;18.50;97.70;;;;;;4990786;28;20501;-77
2022/08/12 05:42:09;;;;;;;7.27;3.30;;;18.50;97.70;;;;;;4990836;28;20586;-75
2022/08/12 05:44:36;;;;;;;4.67;3.80;;;18.50;97.90;;;;;;4990565;28;20503;-75
2022/08/12 05:47:03;;;;;;;5.07;3.77;;;18.50;98.20;;;;;;4990309;28;20463;-77
2022/08/12 05:49:32;;;;;;;3.37;2.73;;;18.60;98.60;;;;;;4991351;28;20448;-77
2022/08/12 05:51:59;;;;;;;3.93;3.20;;;18.60;98.70;;;;;;4990906;28;20482;-78
2022/08/12 05:54:26;;;;;;;5.07;3.80;;;18.60;98.80;;;;;;4990117;28;20464;-77
2022/08/12 05:56:53;;;;;;;7.60;3.70;;;18.60;99.10;;;;;;4991141;28;20463;-78
2022/08/12 05:59:22;;;;;;;5.70;3.83;;;18.60;99.40;;;;;;4990664;28;20467;-78
2022/08/12 06:01:49;;;;;;;4.10;3.70;;;18.60;99.10;;;;;;4991786;28;20554;-78
2022/08/12 06:04:16;;;;;;;6.80;3.20;;;18.70;99.00;;;;;;4992583;28;20494;-77
2022/08/12 06:06:50;;;;;;;7.33;3.57;;;18.70;98.30;;;;;;4993819;28;20456;-78
2022/08/12 06:09:16;;;;;;;4.67;3.50;;;18.70;99.10;;;;;;4990076;28;20452;-77
2022/08/12 06:11:45;;;;;;;5.13;3.40;;;18.80;98.90;;;;;;4989863;28;20494;-77
2022/08/12 06:14:12;;;;;;;6.00;3.83;;;18.80;98.90;;;;;;4992074;28;20466;-77
2022/08/12 06:16:40;;;;;;;4.50;3.13;;;18.80;98.20;;;;;;4993034;28;20840;-77
2022/08/12 06:19:07;;;;;;;4.97;3.53;;;18.90;97.70;;;;;;4989736;28;20959;-75
2022/08/12 06:21:36;;;;;;;6.33;3.50;;;18.90;98.10;;;;;;4991029;28;20476;-77
2022/08/12 06:24:07;;;;;;;6.00;3.63;;;18.90;97.70;;;;;;4990616;28;20459;-76
2022/08/12 06:26:34;;;;;;;6.00;3.03;;;19.00;97.50;;;;;;4990187;28;20496;-77
2022/08/12 06:29:01;;;;;;;5.30;3.47;;;19.10;97.40;;;;;;4992018;28;20455;-74
2022/08/12 06:31:28;;;;;;;5.30;3.10;;;19.10;97.10;;;;;;4991571;28;20483;-77
2022/08/12 06:33:56;;;;;;;3.83;3.20;;;19.10;97.00;;;;;;4990123;28;20471;-77
2022/08/12 06:36:23;;;;;;;5.63;2.80;;;19.20;97.40;;;;;;4990717;28;20459;-77
2022/08/12 06:38:51;;;;;;;3.20;2.90;;;19.20;97.40;;;;;;4990783;28;20551;-77
2022/08/12 06:44:02;;;;;;;10.03;3.57;;;19.30;96.90;;;;;;4989047;28;20839;-77
2022/08/12 06:46:31;;;;;;;10.03;3.50;;;19.40;96.70;;;;;;4987962;28;20495;-76
2022/08/12 06:48:59;;;;;;;4.90;3.40;;;19.40;96.90;;;;;;4989025;28;20463;-74
2022/08/12 06:51:27;;;;;;;6.63;2.90;;;19.50;96.60;;;;;;4989527;28;20483;-76
2022/08/12 06:53:55;;;;;;;4.97;2.80;;;19.60;96.80;;;;;;4987345;28;20463;-77
2022/08/12 06:56:22;;;;;;;4.73;3.10;;;19.60;96.80;;;;;;4989194;28;20462;-76
2022/08/12 06:58:49;;;;;;;5.37;2.90;;;19.70;96.50;;;;;;4989645;28;20464;-77
2022/08/12 07:01:16;;;;;;;9.93;3.30;;;19.80;96.30;;;;;;4990264;28;20491;-77
2022/08/12 07:03:43;;;;;;;3.33;2.97;;;19.80;95.90;;;;;;4989301;28;20477;-78
2022/08/12 07:06:12;;;;;;;6.30;3.30;;;19.90;96.00;;;;;;4984873;28;20487;-77
2022/08/12 07:08:41;;;;;;;3.80;2.63;;;20.00;96.20;;;;;;4987243;28;20452;-75
2022/08/12 07:11:10;;;;;;;3.53;2.63;;;20.00;96.00;;;;;;4986471;28;21423;-77
2022/08/12 07:13:42;;;;;;;4.67;2.90;;;20.10;96.00;;;;;;4986633;28;20468;-77
2022/08/12 07:16:10;;;;;;;5.33;3.30;;;20.20;95.80;;;;;;4985767;28;20901;-76
2022/08/12 07:18:38;;;;;;;3.60;3.00;;;20.20;95.70;;;;;;4986313;28;20966;-77
2022/08/12 07:21:06;;;;;;;4.70;3.03;;;20.30;95.60;;;;;;4986034;28;20479;-76
2022/08/12 07:23:36;;;;;;;4.03;2.97;;;20.40;95.70;;;;;;4986321;28;20459;-75
2022/08/12 07:26:06;;;;;;;4.23;2.70;;;20.40;95.60;;;;;;4985122;28;20495;-76
2022/08/12 07:28:37;;;;;;;6.63;2.90;;;20.60;95.60;;;;;;4986299;28;20471;-76
2022/08/12 07:31:07;;;;;;;3.07;2.77;;;20.70;96.00;;;;;;4986083;28;20530;-77
2022/08/12 07:33:37;;;;;;;4.07;2.80;;;20.70;95.70;;;;;;4986249;28;20470;-77
2022/08/12 07:36:05;;;;;;;4.70;3.00;;;20.80;95.60;;;;;;4986267;28;20459;-77
2022/08/12 07:38:35;;;;;;;5.03;2.77;;;20.90;95.60;;;;;;4987273;28;20974;-76
2022/08/12 07:41:05;;;;;;;4.47;2.70;;;21.00;95.20;;;;;;4986264;28;20475;-77
2022/08/12 07:43:35;;;;;;;3.43;2.70;;;21.00;95.20;;;;;;4986436;28;20460;-77
2022/08/12 07:46:04;;;;;;;4.20;2.83;;;21.10;95.10;;;;;;4985638;28;20487;-77
2022/08/12 07:48:36;;;;;;;4.13;2.93;;;21.20;95.00;;;;;;4986967;28;20455;-77
2022/08/12 07:51:04;;;;;;;4.30;2.63;;;21.30;94.80;;;;;;4986442;28;21448;-76
2022/08/12 07:53:31;;;;;;;3.80;2.50;;;21.30;95.30;;;;;;4986241;28;20455;-77
2022/08/12 07:55:59;;;;;;;4.30;3.23;;;21.50;95.50;;;;;;4985508;28;20452;-77
2022/08/12 07:58:26;;;;;;;6.40;2.70;;;21.50;95.10;;;;;;4986079;28;20974;-77
2022/08/12 08:00:56;;;;;;;4.13;3.23;;;21.60;95.30;;;;;;4985879;28;20480;-77
2022/08/12 08:03:23;;;;;;;3.47;2.70;;;21.70;94.50;;;;;;4986258;28;20463;-77
2022/08/12 08:05:50;;;;;;;4.03;2.57;;;21.80;95.50;;;;;;4985132;28;20593;-76
2022/08/12 08:08:19;;;;;;;4.17;2.90;;;21.90;95.10;;;;;;4986186;28;20965;-77
2022/08/12 08:10:46;;;;;;;3.87;3.03;;;22.00;94.50;;;;;;4987070;28;20490;-76
2022/08/12 08:13:14;;;;;;;4.37;3.20;;;22.10;94.60;;;;;;4986452;28;20558;-77
2022/08/12 08:15:41;;;;;;;3.70;2.93;;;22.10;94.50;;;;;;4986663;28;20815;-76
2022/08/12 08:18:09;;;;;;;3.57;2.93;;;22.20;94.00;;;;;;4987617;28;20459;-77
2022/08/12 08:20:39;;;;;;;3.60;2.63;;;22.30;94.10;;;;;;4975966;28;20492;-77
2022/08/12 08:23:09;;;;;;;7.63;2.60;;;22.40;94.30;;;;;;4968193;28;20575;-76
2022/08/12 08:25:37;;;;;;;4.10;2.57;;;22.40;93.90;;;;;;4967071;28;20492;-77
2022/08/12 08:28:08;;;;;;;3.20;2.50;;;22.50;93.50;;;;;;4967948;28;20583;-77
2022/08/12 08:30:38;;;;;;;4.00;2.67;;;22.70;93.50;;;;;;4968101;28;20484;-77
2022/08/12 08:33:08;;;;;;;4.60;2.60;;;22.80;93.40;;;;;;4967786;28;20457;-75
2022/08/12 08:35:35;;;;;;;3.50;2.70;;;22.90;93.50;;;;;;4966761;28;21124;-74
2022/08/12 08:38:10;;;;;;;2.53;2.10;;;23.00;93.30;;;;;;4970732;28;20468;-77
2022/08/12 08:43:24;;;;;;;5.80;3.20;;;23.10;92.50;;;;;;4970207;28;21103;-77
2022/08/12 08:45:52;;;;;;;5.60;2.80;;;23.30;92.10;;;;;;4969208;28;20503;-74
2022/08/12 08:48:21;;;;;;;2.80;2.40;;;23.30;92.30;;;;;;4969883;28;20846;-75
2022/08/12 08:50:48;;;;;;;4.30;2.70;;;23.50;92.00;;;;;;4969968;28;20488;-75
2022/08/12 08:53:15;;;;;;;3.73;2.50;;;23.50;91.10;;;;;;4970237;28;20453;-77
2022/08/12 08:55:42;;;;;;;2.90;2.37;;;23.60;91.10;;;;;;4969460;28;20523;-77
2022/08/12 08:58:09;;;;;;;3.57;2.00;;;23.70;90.90;;;;;;4970255;28;20470;-76
2022/08/12 09:00:38;;;;;;;4.40;2.33;;;23.80;90.90;;;;;;4969763;28;20488;-77
2022/08/12 09:03:07;;;;;;;4.93;2.67;;;23.90;91.00;;;;;;4970163;28;20528;-77
2022/08/12 09:05:35;;;;;;;4.40;2.57;;;24.00;90.00;;;;;;4969221;28;20496;-77
2022/08/12 09:08:04;;;;;;;6.00;2.30;;;24.10;90.40;;;;;;4969980;28;20976;-76
2022/08/12 09:10:32;;;;;;;3.80;2.10;;;24.20;90.60;;;;;;4969743;28;20461;-76
2022/08/12 09:15:45;;;;;;;7.57;2.60;;;24.40;90.40;;;;;;4968529;28;20412;-77
2022/08/12 09:18:17;;;;;;;3.93;1.97;;;24.50;90.10;;;;;;4969011;28;20549;-76
2022/08/12 09:20:44;;;;;;;2.13;1.93;;;24.60;88.90;;;;;;4969200;28;20485;-76
2022/08/12 09:23:12;;;;;;;3.03;2.20;;;24.70;89.00;;;;;;4968135;28;20477;-76
2022/08/12 09:25:40;;;;;;;5.33;2.30;;;24.80;88.40;;;;;;4968219;28;20492;-76
2022/08/12 09:28:09;;;;;;;3.53;2.30;;;24.90;87.40;;;;;;4968571;28;21025;-75
2022/08/12 09:30:35;;;;;;;4.83;2.77;;;25.00;88.60;;;;;;4968716;28;21137;-76
2022/08/12 09:33:03;;;;;;;3.43;2.17;;;25.10;87.30;;;;;;4968806;28;20461;-75
2022/08/12 09:35:33;;;;;;;4.70;2.47;;;25.20;88.70;;;;;;4968235;28;20829;-76
2022/08/12 09:38:02;;;;;;;4.10;2.40;;;25.30;88.00;;;;;;4968724;28;20468;-75
2022/08/12 09:40:29;;;;;;;3.67;2.20;;;25.40;86.10;;;;;;4968146;28;20866;-77
2022/08/12 09:45:44;;;;;;;3.10;2.30;;;25.50;84.80;;;;;;4967784;28;20534;-76
2022/08/12 09:48:15;;;;;;;6.90;2.43;;;25.60;86.40;;;;;;4968219;28;20453;-76
2022/08/12 09:50:44;;;;;;;3.10;2.20;;;25.70;85.70;;;;;;4968304;28;20496;-76
2022/08/12 09:53:14;;;;;;;4.50;2.60;;;25.70;85.70;;;;;;4967964;28;20475;-76
2022/08/12 09:55:43;;;;;;;8.63;2.50;;;25.80;85.80;;;;;;4967502;28;21090;-76
2022/08/12 09:58:10;;;;;;;3.10;2.10;;;25.90;86.10;;;;;;4967974;28;21006;-76
2022/08/12 10:00:36;;;;;;;3.90;2.17;;;26.00;84.20;;;;;;4967923;28;20488;-76
2022/08/12 10:03:06;;;;;;;5.03;1.90;;;25.90;83.90;;;;;;4968304;28;20469;-77
2022/08/12 10:05:36;;;;;;;2.63;1.90;;;26.00;86.00;;;;;;4967570;28;20496;-76
2022/08/12 10:08:09;;;;;;;3.23;1.80;;;26.10;84.30;;;;;;4968935;28;20519;-76
2022/08/12 10:13:40;;;;;;;4.83;2.00;;;26.30;84.00;;;;;;4968390;28;20504;-76
2022/08/12 10:13:43;;;;;;;4.53;2.47;;;26.40;83.60;;;;;;4967770;28;20508;-76
2022/08/12 10:16:12;;;;;;;2.40;2.10;;;26.50;83.90;;;;;;4967264;28;20452;-77
2022/08/12 10:18:40;;;;;;;5.23;2.00;;;26.60;82.80;;;;;;4968092;28;20460;-76
2022/08/12 10:21:09;;;;;;;2.20;1.97;;;26.60;82.60;;;;;;4967835;28;20552;-76
2022/08/12 10:23:39;;;;;;;7.43;3.07;;;26.70;82.70;;;;;;4967976;28;20468;-76
2022/08/12 10:31:35;;;;;;;4.57;2.73;;;27.00;81.40;;;;;;4967773;28;20464;-77
2022/08/12 10:34:04;;;;;;;3.63;2.00;;;27.10;81.40;;;;;;4967250;28;20973;-77
2022/08/12 10:36:31;;;;;;;2.80;2.37;;;27.10;80.30;;;;;;4967668;28;20468;-77
2022/08/12 10:38:59;;;;;;;3.70;2.30;;;27.20;81.50;;;;;;4968087;28;20583;-77
2022/08/12 10:44:14;;;;;;;5.50;1.93;;;27.30;82.20;;;;;;4967331;28;20447;-77
2022/08/12 10:46:41;;;;;;;2.20;2.00;;;27.40;80.10;;;;;;4967828;28;20488;-76
2022/08/12 10:49:10;;;;;;;2.07;1.60;;;27.50;78.10;;;;;;4968032;28;20548;-75
2022/08/12 10:51:37;;;;;;;3.60;1.77;;;27.50;77.00;;;;;;4967735;28;20488;-77
2022/08/12 10:54:05;;;;;;;3.40;1.57;;;27.60;78.20;;;;;;4967835;28;20465;-77
2022/08/12 10:56:33;;;;;;;2.77;2.47;;;27.70;79.00;;;;;;4968557;28;20503;-75
2022/08/12 10:58:59;;;;;;;2.33;1.77;;;27.80;78.50;;;;;;4967418;28;20543;-75
2022/08/12 11:01:27;;;;;;;3.83;2.10;;;27.90;78.40;;;;;;4966724;28;21036;-77
2022/08/12 11:03:54;;;;;;;2.23;2.03;;;27.90;78.50;;;;;;4967806;28;20467;-77
2022/08/12 11:06:22;;;;;;;2.37;1.77;;;28.00;76.80;;;;;;4966737;28;20503;-77
2022/08/12 11:08:50;;;;;;;6.97;1.90;;;28.10;77.10;;;;;;4966977;28;20556;-76
2022/08/12 11:11:19;;;;;;;8.13;2.23;;;28.20;77.60;;;;;;4967476;28;20480;-77
2022/08/12 11:13:46;;;;;;;6.73;2.10;;;28.20;75.60;;;;;;4967658;28;20512;-77
2022/08/12 11:16:16;;;;;;;3.43;1.80;;;28.40;77.70;;;;;;4966639;28;20449;-77
2022/08/12 11:18:43;;;;;;;7.30;2.10;;;28.40;76.40;;;;;;4967605;28;20989;-77
2022/08/12 11:21:10;;;;;;;2.10;1.53;;;28.50;76.20;;;;;;4966818;28;20592;-77
2022/08/12 11:23:37;;;;;;;2.90;2.03;;;28.60;75.50;;;;;;4967050;28;20463;-75
2022/08/12 11:26:05;;;;;;;2.30;1.60;;;28.70;74.50;;;;;;4966537;28;20549;-77
2022/08/12 11:28:33;;;;;;;3.90;2.30;;;28.70;75.00;;;;;;4965642;28;20952;-77
2022/08/12 11:31:00;;;;;;;3.63;1.70;;;28.70;74.20;;;;;;4966556;28;21309;-78
2022/08/12 11:33:27;;;;;;;1.80;1.63;;;28.80;73.40;;;;;;4967170;28;20457;-76
2022/08/12 11:35:54;;;;;;;2.70;1.97;;;28.80;73.50;;;;;;4965356;28;21299;-77
2022/08/12 11:38:21;;;;;;;2.17;2.00;;;28.90;74.30;;;;;;4966601;28;20461;-77
2022/08/12 11:40:47;;;;;;;2.50;1.93;;;28.90;74.40;;;;;;4978183;28;20483;-76
2022/08/12 11:43:14;;;;;;;2.30;1.90;;;29.00;75.50;;;;;;4985337;28;20459;-77
2022/08/12 11:45:42;;;;;;;6.57;2.13;;;29.10;73.90;;;;;;4976510;28;20456;-77
2022/08/12 11:48:09;;;;;;;2.17;1.60;;;29.10;74.20;;;;;;4985935;28;20498;-76
2022/08/12 11:50:36;;;;;;;2.13;1.80;;;29.20;73.00;;;;;;4985267;28;21003;-75
2022/08/12 11:53:03;;;;;;;3.33;1.77;;;29.20;73.00;;;;;;4985390;28;20463;-77
2022/08/12 11:55:31;;;;;;;3.70;1.90;;;29.20;72.90;;;;;;4984623;28;20463;-77
2022/08/12 11:57:59;;;;;;;2.20;1.73;;;29.20;73.90;;;;;;4985068;28;20633;-76
2022/08/12 12:00:26;;;;;;;5.67;2.43;;;29.30;73.60;;;;;;4985163;28;20456;-77
2022/08/12 12:02:54;;;;;;;1.60;1.50;;;29.30;73.10;;;;;;4985845;28;20458;-75
2022/08/12 12:05:21;;;;;;;2.00;1.80;;;29.20;72.50;;;;;;4984888;28;20471;-77
2022/08/12 12:07:48;;;;;;;4.80;1.67;;;29.20;71.20;;;;;;4984753;28;20488;-77
2022/08/12 12:10:17;;;;;;;2.17;1.97;;;29.10;71.70;;;;;;4985229;28;20957;-76
2022/08/12 12:12:44;;;;;;;3.10;1.90;;;29.10;71.40;;;;;;4989068;28;20464;-77
2022/08/12 12:15:12;;;;;;;2.53;1.80;;;29.20;70.90;;;;;;4989436;28;20455;-77
2022/08/12 12:17:41;;;;;;;2.57;1.53;;;29.20;69.80;;;;;;4990256;28;20459;-76
2022/08/12 12:20:12;;;;;;;2.87;1.90;;;29.30;71.80;;;;;;4989512;28;20578;-78
2022/08/12 12:22:41;;;;;;;2.20;1.60;;;29.30;70.70;;;;;;4989656;28;20478;-77
2022/08/12 12:25:09;;;;;;;5.63;1.93;;;29.40;71.40;;;;;;4988975;28;20490;-75
2022/08/12 12:27:47;;;;;;;3.13;1.77;;;29.40;69.40;;;;;;4989317;28;20502;-75
2022/08/12 12:30:15;;;;;;;4.07;1.77;;;29.30;68.80;;;;;;4989112;28;20557;-76
2022/08/12 12:32:42;;;;;;;1.57;1.40;;;29.30;69.50;;;;;;4989226;28;20462;-75
2022/08/12 12:35:11;;;;;;;3.27;2.00;;;29.50;70.50;;;;;;4988748;28;20463;-74
2022/08/12 12:37:51;;;;;;;2.80;1.70;;;29.50;69.30;;;;;;4988687;28;20455;-73
2022/08/12 12:40:18;;;;;;;4.10;1.90;;;29.50;70.80;;;;;;4989570;28;20439;-75
2022/08/12 12:42:44;;;;;;;2.53;1.83;;;29.60;69.80;;;;;;4989420;28;20463;-76
2022/08/12 12:45:12;;;;;;;5.00;1.80;;;29.60;69.90;;;;;;4988385;28;20838;-75
2022/08/12 12:47:53;;;;;;;5.40;1.70;;;29.60;71.00;;;;;;4988877;28;21473;-73
2022/08/12 12:50:21;;;;;;;5.03;1.70;;;29.60;70.00;;;;;;4989589;28;20456;-77
2022/08/12 12:52:48;;;;;;;1.80;1.70;;;29.50;68.90;;;;;;4989254;28;20463;-77
2022/08/12 12:55:15;;;;;;;3.40;1.60;;;29.30;68.70;;;;;;4989079;28;20459;-76
2022/08/12 12:57:44;;;;;;;1.60;1.50;;;29.30;69.20;;;;;;4989647;28;20998;-76
2022/08/12 13:00:16;;;;;;;2.40;1.57;;;29.30;69.10;;;;;;4989545;28;20487;-76
2022/08/12 13:02:44;;;;;;;3.30;1.93;;;29.30;70.00;;;;;;4988816;28;20467;-75
2022/08/12 13:05:12;;;;;;;4.00;2.00;;;29.40;71.20;;;;;;4988827;28;20851;-77
2022/08/12 13:07:41;;;;;;;3.23;1.97;;;29.40;71.60;;;;;;4988574;28;21015;-76
2022/08/12 13:10:09;;;;;;;5.63;1.80;;;29.60;69.40;;;;;;4990023;28;20544;-77
2022/08/12 13:12:36;;;;;;;3.50;1.77;;;29.70;71.60;;;;;;4989362;28;20554;-77
2022/08/12 13:15:07;;;;;;;2.37;1.87;;;29.60;68.70;;;;;;4988467;28;20463;-77
2022/08/12 13:17:34;;;;;;;1.73;1.60;;;29.60;68.40;;;;;;4989603;28;20471;-77
2022/08/12 13:20:04;;;;;;;4.40;1.80;;;29.60;67.10;;;;;;4988879;28;20464;-77
2022/08/12 13:22:31;;;;;;;3.50;1.90;;;29.70;68.60;;;;;;4988741;28;20996;-78
2022/08/12 13:25:00;;;;;;;1.60;1.50;;;29.80;68.50;;;;;;4989678;28;20467;-77
2022/08/12 13:27:29;;;;;;;3.80;1.53;;;29.80;68.20;;;;;;4989580;28;20562;-77
2022/08/12 13:29:56;;;;;;;4.00;1.57;;;29.90;66.70;;;;;;4988979;28;20465;-77
2022/08/12 13:32:28;;;;;;;1.67;1.40;;;30.10;68.50;;;;;;4987550;28;21002;-77
2022/08/12 13:34:55;;;;;;;2.37;1.90;;;30.10;68.20;;;;;;4987778;28;20535;-78
2022/08/12 13:37:25;;;;;;;3.30;1.63;;;30.10;68.30;;;;;;4987802;28;20459;-77
2022/08/12 13:39:52;;;;;;;2.70;1.80;;;30.10;69.70;;;;;;4988048;28;20463;-77
2022/08/12 13:42:21;;;;;;;2.63;1.73;;;30.10;70.10;;;;;;4987639;28;20955;-77
2022/08/12 13:44:51;;;;;;;2.43;2.00;;;30.00;67.70;;;;;;4988786;28;20467;-77
2022/08/12 13:47:20;;;;;;;2.80;1.93;;;30.00;69.50;;;;;;4988221;28;20502;-77
2022/08/12 13:49:48;;;;;;;4.50;1.90;;;30.00;69.20;;;;;;4987577;28;20467;-77
2022/08/12 13:52:17;;;;;;;3.40;1.83;;;29.90;68.60;;;;;;4987344;28;20479;-77
2022/08/12 13:54:45;;;;;;;3.63;1.60;;;29.90;68.90;;;;;;4986822;28;20554;-77
2022/08/12 13:57:12;;;;;;;2.27;1.60;;;29.90;70.00;;;;;;4987400;28;20459;-77
2022/08/12 13:59:40;;;;;;;3.40;1.73;;;30.00;69.30;;;;;;4987977;28;20543;-77
2022/08/12 14:02:12;;;;;;;4.40;1.57;;;30.00;67.90;;;;;;4987530;28;20522;-77
2022/08/12 14:04:40;;;;;;;2.20;1.70;;;30.10;67.30;;;;;;4987870;28;20479;-77
2022/08/12 14:07:07;;;;;;;8.27;2.10;;;30.10;67.60;;;;;;4987673;28;21308;-77
2022/08/12 14:10:34;;;;;;;2.20;1.57;;;30.10;67.30;;;;;;4988487;28;20558;-78
2022/08/12 14:12:20;;;;;;;5.47;2.40;;;30.10;68.10;;;;;;4990895;28;20518;-78
2022/08/12 14:14:49;;;;;;;5.50;2.00;;;30.00;66.50;;;;;;4988465;28;21027;-78
2022/08/12 14:17:17;;;;;;;2.80;1.70;;;29.90;67.40;;;;;;4989943;28;20462;-77
2022/08/12 14:22:26;;;;;;;3.13;1.70;;;29.80;69.20;;;;;;4986826;28;20470;-77
2022/08/12 14:24:53;;;;;;;2.20;1.70;;;29.90;69.60;;;;;;4987982;28;20451;-77
2022/08/12 14:27:24;;;;;;;2.40;1.80;;;30.00;69.70;;;;;;4989431;28;21030;-78
2022/08/12 14:29:53;;;;;;;2.70;1.40;;;30.00;68.20;;;;;;4988412;28;20554;-78
2022/08/12 14:32:20;;;;;;;5.07;1.73;;;30.10;69.50;;;;;;4988173;28;20491;-77
2022/08/12 14:34:50;;;;;;;4.50;1.90;;;30.20;70.20;;;;;;4986889;28;20466;-77
2022/08/12 14:37:17;;;;;;;2.87;2.07;;;30.30;68.40;;;;;;4988761;28;20491;-77
2022/08/12 14:39:44;;;;;;;1.50;1.30;;;30.20;66.90;;;;;;4990062;28;20470;-77
2022/08/12 14:42:10;;;;;;;3.10;1.60;;;30.10;66.20;;;;;;4991388;28;20806;-78
2022/08/12 14:44:37;;;;;;;2.93;1.33;;;30.10;66.80;;;;;;4990651;28;20952;-78
2022/08/12 14:47:07;;;;;;;1.97;1.70;;;30.00;66.50;;;;;;4988976;28;20487;-75
2022/08/12 14:49:34;;;;;;;3.10;1.30;;;30.00;66.10;;;;;;4986003;28;20455;-75
2022/08/12 14:52:01;;;;;;;4.47;1.57;;;29.90;65.30;;;;;;4985853;28;20480;-75
2022/08/12 14:54:29;;;;;;;2.17;1.50;;;29.80;66.30;;;;;;4988564;28;20460;-78
2022/08/12 14:56:57;;;;;;;8.47;1.63;;;29.70;66.50;;;;;;4991079;28;21003;-78
2022/08/12 15:02:09;;;;;;;2.47;1.47;;;29.70;66.80;;;;;;4989709;28;20477;-77
2022/08/12 15:04:38;;;;;;;5.40;1.30;;;29.70;67.30;;;;;;4989626;28;20519;-78
2022/08/12 15:07:05;;;;;;;5.87;2.00;;;29.80;66.80;;;;;;4991218;28;20455;-77
2022/08/12 15:09:32;;;;;;;4.73;2.03;;;29.70;68.50;;;;;;4990355;28;20471;-77
2022/08/12 15:11:58;;;;;;;3.30;2.20;;;29.80;68.50;;;;;;4990921;28;20963;-77
2022/08/12 15:14:25;;;;;;;5.10;1.70;;;29.80;69.40;;;;;;4992083;28;20459;-77
2022/08/12 15:16:53;;;;;;;2.33;1.47;;;29.90;68.90;;;;;;4991961;28;20470;-77
2022/08/12 15:19:21;;;;;;;4.13;1.47;;;30.00;69.20;;;;;;4991182;28;20467;-76
2022/08/12 15:21:48;;;;;;;3.83;1.70;;;30.10;70.20;;;;;;4986377;28;20484;-77
2022/08/12 15:24:15;;;;;;;2.23;1.40;;;30.20;68.00;;;;;;4985029;28;20468;-77
2022/08/12 15:26:42;;;;;;;3.93;1.47;;;30.20;66.90;;;;;;4988688;28;20459;-77
2022/08/12 15:29:10;;;;;;;3.63;1.37;;;30.30;69.00;;;;;;4988374;28;20865;-78
2022/08/12 15:31:37;;;;;;;1.90;1.60;;;30.30;68.70;;;;;;4988329;28;20487;-77
2022/08/12 15:34:06;;;;;;;3.20;1.53;;;30.40;66.20;;;;;;4987998;28;20467;-79
2022/08/12 15:36:37;;;;;;;3.47;1.90;;;30.30;66.00;;;;;;4989149;28;21152;-76
2022/08/12 15:39:04;;;;;;;4.20;1.73;;;30.20;65.00;;;;;;4989713;28;20461;-76
2022/08/12 15:41:32;;;;;;;3.10;1.50;;;30.10;66.00;;;;;;4989752;28;20526;-76
2022/08/12 15:43:59;;;;;;;5.23;1.50;;;29.90;66.00;;;;;;4989001;28;20530;-77
2022/08/12 15:46:31;;;;;;;3.50;1.80;;;29.90;65.00;;;;;;4990906;28;21038;-76
2022/08/12 15:48:57;;;;;;;1.93;1.60;;;30.00;67.80;;;;;;4993407;28;20486;-77
2022/08/12 15:51:29;;;;;;;8.17;1.93;;;30.00;67.50;;;;;;4992953;28;20479;-77
2022/08/12 15:54:06;;;;;;;2.07;1.63;;;30.20;65.80;;;;;;4993058;28;20843;-78
2022/08/12 15:56:36;;;;;;;3.50;1.97;;;30.20;66.00;;;;;;4993309;28;20566;-76
2022/08/12 15:59:04;;;;;;;3.10;1.67;;;30.10;66.10;;;;;;4993729;28;20459;-76
2022/08/12 16:01:31;;;;;;;6.00;2.20;;;30.00;67.70;;;;;;4992335;28;20577;-78
2022/08/12 16:03:58;;;;;;;4.47;3.23;;;29.90;66.70;;;;;;4992120;28;20466;-82
2022/08/12 16:06:25;;;;;;;7.00;2.73;;;29.80;66.50;;;;;;4992113;28;20567;-78
2022/08/12 16:08:52;;;;;;;3.23;1.60;;;29.70;67.00;;;;;;4992281;28;20503;-76
2022/08/12 16:11:21;;;;;;;3.13;1.97;;;29.60;65.70;;;;;;4992162;28;20493;-80
2022/08/12 16:13:48;;;;;;;6.30;1.83;;;29.40;67.60;;;;;;4992444;28;20455;-78
2022/08/12 16:16:15;;;;;;;1.60;1.40;;;29.40;66.90;;;;;;4991903;28;20490;-78
2022/08/12 16:18:43;;;;;;;4.10;1.50;;;29.30;67.00;;;;;;4992244;28;20465;-78
2022/08/12 16:21:10;;;;;;;3.37;1.50;;;29.10;68.10;;;;;;4991794;28;20487;-79
2022/08/12 16:23:38;;;;;;;3.37;1.90;;;29.10;68.20;;;;;;4992293;28;20538;-78
2022/08/12 16:26:08;;;;;;;2.00;1.60;;;29.10;68.00;;;;;;4991786;28;20471;-76
2022/08/12 16:28:37;;;;;;;3.40;2.00;;;29.20;67.40;;;;;;4992330;28;20492;-77
2022/08/12 16:31:05;;;;;;;2.90;1.70;;;29.30;68.40;;;;;;4992099;28;20490;-77
2022/08/12 16:33:34;;;;;;;1.33;1.23;;;29.30;67.30;;;;;;4992056;28;20984;-77
2022/08/12 16:36:03;;;;;;;1.27;1.10;;;29.40;68.20;;;;;;4991138;28;20470;-77
2022/08/12 16:38:30;;;;;;;1.50;1.17;;;29.40;67.20;;;;;;4991349;28;20491;-79
2022/08/12 16:40:57;;;;;;;2.77;1.50;;;29.50;66.40;;;;;;4991610;28;20485;-76
2022/08/12 16:43:28;;;;;;;2.80;1.80;;;29.50;65.30;;;;;;4990942;28;20456;-77
2022/08/12 16:45:59;;;;;;;3.30;1.30;;;29.40;65.60;;;;;;4990494;28;20479;-79
2022/08/12 16:48:28;;;;;;;4.03;1.30;;;29.40;66.60;;;;;;4990732;28;21078;-81
2022/08/12 16:50:57;;;;;;;5.53;1.37;;;29.50;65.50;;;;;;4990729;28;20486;-77
2022/08/12 16:53:25;;;;;;;2.13;1.20;;;29.50;66.50;;;;;;4990595;28;20840;-76
2022/08/12 16:55:54;;;;;;;1.90;1.03;;;29.50;67.40;;;;;;4989327;28;20459;-77
2022/08/12 16:58:24;;;;;;;1.87;1.40;;;29.50;66.90;;;;;;4989882;28;20455;-77
2022/08/12 17:00:51;;;;;;;3.43;1.10;;;29.40;68.40;;;;;;4989843;28;20488;-77
2022/08/12 17:03:19;;;;;;;2.03;1.40;;;29.40;65.00;;;;;;4989086;28;20452;-76
2022/08/12 17:05:51;;;;;;;1.40;1.20;;;29.30;66.00;;;;;;4987495;28;20467;-77
2022/08/12 17:08:20;;;;;;;1.77;1.20;;;29.30;66.60;;;;;;4988996;28;20476;-76
2022/08/12 17:10:49;;;;;;;1.83;1.10;;;29.30;65.40;;;;;;4989937;28;20545;-77
2022/08/12 17:13:16;;;;;;;1.80;1.20;;;29.10;65.20;;;;;;4989695;28;20460;-76
2022/08/12 17:15:44;;;;;;;1.53;1.27;;;29.10;66.80;;;;;;4988969;28;20472;-77
2022/08/12 17:18:12;;;;;;;2.50;1.30;;;29.00;64.40;;;;;;4989824;28;20463;-79